Погода Шарджана 2 недели

Шарджа, ОАЭ

29 мая-11 июня
  • 29мая
    Сегодня
    +27°
    +41°
    Ясно и безоблачно
    ВремяПогодаТемператураВлажностьДавлениеВетер, м/сВероятность осадков
    01:00Ясно и безоблачно+30°C93 %750 мм3.4 м/с0 %
    04:00Ясно и безоблачно+28°C95 %749 мм4.2 м/с0 %
    07:00Практически безоблачно+28°C92 %750 мм4.7 м/с0 %
    10:00Ясно и безоблачно+37°C67 %750 мм4.1 м/с0 %
    13:00Ясно и безоблачно+40°C62 %750 мм5.2 м/с0 %
    16:00Ясно и безоблачно+39°C70 %748 мм4.0 м/с0 %
    19:00Ясно и безоблачно+35°C79 %748 мм1.9 м/с0 %
    22:00Ясно и безоблачно+33°C87 %750 мм3.0 м/с0 %
  • 30мая
    Четверг
    +29°
    +41°
    Ясно и безоблачно
    ВремяПогодаТемператураВлажностьДавлениеВетер, м/сВероятность осадков
    01:00Ясно и безоблачно+31°C91 %750 мм3.6 м/с0 %
    04:00Ясно и безоблачно+29°C95 %750 мм3.8 м/с0 %
    07:00Ясно и безоблачно+29°C91 %751 мм2.9 м/с0 %
    10:00Ясно и безоблачно+37°C61 %752 мм1.9 м/с0 %
    13:00Ясно и безоблачно+40°C71 %751 мм4.6 м/с0 %
    16:00Ясно и безоблачно+39°C72 %750 мм4.0 м/с0 %
    19:00Ясно и безоблачно+36°C78 %750 мм2.4 м/с0 %
    22:00Ясно и безоблачно+34°C80 %751 мм1.7 м/с0 %
  • 31мая
    Пятница
    +29°
    +43°
    Ясно и безоблачно
    ВремяПогодаТемператураВлажностьДавлениеВетер, м/сВероятность осадков
    01:00Ясно и безоблачно+32°C78 %751 мм2.2 м/с0 %
    04:00Ясно и безоблачно+31°C80 %751 мм0.3 м/с0 %
    07:00Ясно и безоблачно+31°C68 %752 мм1.8 м/с0 %
    10:00Ясно и безоблачно+40°C57 %753 мм1.1 м/с0 %
    13:00Ясно и безоблачно+43°C69 %752 мм4.1 м/с0 %
    16:00Ясно и безоблачно+41°C65 %751 мм3.9 м/с0 %
    19:00Ясно и безоблачно+37°C77 %752 мм2.7 м/с0 %
    22:00Ясно и безоблачно+34°C85 %752 мм2.3 м/с0 %
  • 01июня
    Суббота
    +28°
    +41°
    Ясно и безоблачно
    ВремяПогодаТемператураВлажностьДавлениеВетер, м/сВероятность осадков
    01:00Ясно и безоблачно+32°C91 %751 мм1.3 м/с0 %
    04:00Ясно и безоблачно+30°C93 %751 мм2.2 м/с0 %
    07:00Ясно и безоблачно+31°C84 %752 мм2.9 м/с0 %
    10:00Ясно и безоблачно+41°C46 %753 мм2.3 м/с0 %
    13:00Ясно и безоблачно+41°C62 %752 мм5.2 м/с0 %
    16:00Ясно и безоблачно+39°C60 %751 мм4.9 м/с0 %
    19:00Ясно и безоблачно+35°C71 %750 мм3.0 м/с0 %
    22:00Ясно и безоблачно+33°C80 %751 мм3.6 м/с0 %
  • 02июня
    Воскресенье
    +28°
    +42°
    Ясно и безоблачно
    ВремяПогодаТемператураВлажностьДавлениеВетер, м/сВероятность осадков
    01:00Ясно и безоблачно+31°C83 %750 мм1.9 м/с0 %
    04:00Ясно и безоблачно+29°C85 %750 мм2.6 м/с0 %
    07:00Ясно и безоблачно+30°C76 %750 мм4.3 м/с0 %
    10:00Ясно и безоблачно+39°C59 %751 мм4.5 м/с0 %
    13:00Ясно и безоблачно+40°C70 %749 мм5.7 м/с0 %
    16:00Ясно и безоблачно+39°C73 %748 мм4.2 м/с0 %
    19:00Ясно и безоблачно+36°C81 %748 мм2.6 м/с0 %
    22:00Ясно и безоблачно+33°C88 %749 мм2.6 м/с0 %
Мы используем cookies
Соглашаюсь